ENNA METAR and TAF weather

Enter ICAO airport designator
Station Type Date Time Source
ENNA METAR 2020/07/12 01:50 UTC NOAA

ENNA 120150Z AUTO 22003KT 9999 SCT110/// 08/07 Q1011 RMK WIND 1800FT 29004KT


Station Type Date Time Source
ENNA Decoded METAR 2020/07/12 01:50 UTC NOAA

Banak, Norway (ENNA) 70-04N 024-59E 8M
Jul 11, 2020 - 09:50 PM EDT / 2020.07.12 0150 UTC
Wind: from the SW (220 degrees) at 3 MPH (3 KT):0
Visibility: greater than 7 mile(s):0
Sky conditions: partly cloudy
Temperature: 46 F (8 C)
Dew Point: 44 F (7 C)
Relative Humidity: 93%
Pressure (altimeter): 29.85 in. Hg (1011 hPa)
ob: ENNA 120150Z AUTO 22003KT 9999 SCT110/// 08/07 Q1011 RMK WIND 1800FT 29004KT
cycle: 2

Station Type Date Time Source
ENNA TAF 2020/07/11 18:57 UTC NOAA

TAF TAF ENNA 111700Z 1118/1218 VRB05KT 9999 FEW030
TEMPO 1118/1120 35010KT
BECMG 1208/1210 01010KT

Example: see airport list